aviador You're here:

KXMR Decoded Metar

CAPE CANAVERAL in FL, USA
Report Time2018-02-18 20:56:00
UTC Time2018-02-18 21:50:59
Flight Rules vfr VFR
Wind040° at 08 kt
W.Decomp.*RWY 13: 0.6 kt HW 8 kt LCW
W.Rank040° ranks 25
Current wind is above 040° avg. (6.5)
Visibility9999 m
Phenomena:N/A
Clouds:N/A
Expected CloudBase > 2,000 ft AGL from Temp-Dew spread
CeilingNone
Temp24°C (ISA +9)
Dew Point19°C (74% RH)
QNH1023 hPa
Density Alt1,010 ft
Elevation10 ft
Report Wrong Elevation
Raw Report
KXMR 182056Z AUTO 04008KT 10SM CLR 24/19 A3020 RMK AO2 SLP230
T02360193 55005 $=

Extra information for KXMR:More info

Metar Taf Metar & Taf Last 4 Metars F.Rules Stats Wind Profile Meteogram Temp Stats Airport Information Weather charts Add Link Nearby VenuesMetar ALERT Operation Metar Decoded Social comments

AIRNAV info for KXMR